createdAt,value
2023-05-10T00:00:23.780Z,38.55
2023-05-10T00:00:55.950Z,38.83
2023-05-10T00:01:30.760Z,38.60
2023-05-10T00:02:03.494Z,38.46
2023-05-10T00:02:36.032Z,38.42
2023-05-10T00:03:10.968Z,38.43
2023-05-10T00:03:43.409Z,38.92
2023-05-10T00:04:15.728Z,38.56
2023-05-10T00:04:50.502Z,38.54
2023-05-10T00:05:22.919Z,38.93
2023-05-10T00:05:55.119Z,38.96
2023-05-10T00:06:30.137Z,38.57
2023-05-10T00:07:04.944Z,38.46
2023-05-10T00:07:37.102Z,38.75
2023-05-10T00:08:12.011Z,38.50
2023-05-10T00:08:44.175Z,38.94
2023-05-10T00:09:16.617Z,38.56
2023-05-10T00:09:51.336Z,38.85
2023-05-10T00:10:23.675Z,38.75
2023-05-10T00:10:55.963Z,38.86
2023-05-10T00:11:30.883Z,38.98
2023-05-10T00:12:03.092Z,39.06
2023-05-10T00:12:35.318Z,38.87
2023-05-10T00:13:10.391Z,38.68
2023-05-10T00:13:42.616Z,38.96
2023-05-10T00:14:14.762Z,39.12
2023-05-10T00:14:49.484Z,38.76
2023-05-10T00:15:21.758Z,38.87
2023-05-10T00:15:54.308Z,38.84
2023-05-10T00:16:29.170Z,39.15
2023-05-10T00:17:01.780Z,39.39
2023-05-10T00:17:34.196Z,38.99
2023-05-10T00:18:09.070Z,39.15
2023-05-10T00:18:41.529Z,38.96
2023-05-10T00:19:13.813Z,39.21
2023-05-10T00:19:49.325Z,38.97
2023-05-10T00:20:21.628Z,39.11
2023-05-10T00:20:53.930Z,39.46
2023-05-10T00:21:29.462Z,39.04
2023-05-10T00:22:04.344Z,39.47
2023-05-10T00:22:36.610Z,39.39
2023-05-10T00:23:11.428Z,39.35
2023-05-10T00:23:43.597Z,39.50
2023-05-10T00:24:15.837Z,39.40
2023-05-10T00:24:50.661Z,39.34
2023-05-10T00:25:22.873Z,39.57
2023-05-10T00:25:55.064Z,39.63
2023-05-10T00:26:27.287Z,39.39
2023-05-10T00:27:05.090Z,39.34
2023-05-10T00:27:37.342Z,39.43
2023-05-10T00:28:09.561Z,39.50
2023-05-10T00:28:46.157Z,39.15
2023-05-10T00:29:18.408Z,39.44
2023-05-10T00:29:50.927Z,39.64
2023-05-10T00:30:25.955Z,39.50
2023-05-10T00:30:58.236Z,39.77
2023-05-10T00:31:30.464Z,39.39
2023-05-10T00:32:06.153Z,39.82
2023-05-10T00:32:38.367Z,39.58
2023-05-10T00:33:10.944Z,39.77
2023-05-10T00:33:45.713Z,39.51
2023-05-10T00:34:17.881Z,39.53
2023-05-10T00:34:50.697Z,39.52
2023-05-10T00:35:25.486Z,39.90
2023-05-10T00:35:57.774Z,39.39
2023-05-10T00:36:29.994Z,39.56
2023-05-10T00:37:07.281Z,39.69
2023-05-10T00:37:39.450Z,39.39
2023-05-10T00:38:11.692Z,39.56
2023-05-10T00:38:46.957Z,39.55
2023-05-10T00:39:19.279Z,39.91
2023-05-10T00:39:51.483Z,39.53
2023-05-10T00:40:26.442Z,39.92
2023-05-10T00:41:03.794Z,39.60
2023-05-10T00:41:38.226Z,39.99
2023-05-10T00:42:12.086Z,39.75
2023-05-10T00:42:46.872Z,39.95
2023-05-10T00:43:19.090Z,39.47
2023-05-10T00:43:52.956Z,39.72
2023-05-10T00:44:27.792Z,39.90
2023-05-10T00:44:59.997Z,39.80
2023-05-10T00:45:33.772Z,39.73
2023-05-10T00:46:08.852Z,39.68
2023-05-10T00:46:41.778Z,39.83
2023-05-10T00:47:14.186Z,39.84
2023-05-10T00:47:49.654Z,39.86
2023-05-10T00:48:23.374Z,39.72
2023-05-10T00:48:55.610Z,39.79
2023-05-10T00:49:30.645Z,39.90
2023-05-10T00:50:03.348Z,39.71
2023-05-10T00:50:36.101Z,39.75
2023-05-10T00:51:10.900Z,39.86
2023-05-10T00:51:45.667Z,40.08
2023-05-10T00:52:20.864Z,40.13
2023-05-10T00:52:56.245Z,39.68
2023-05-10T00:53:28.916Z,39.95
2023-05-10T00:54:01.499Z,39.92
2023-05-10T00:54:36.296Z,40.13
2023-05-10T00:55:10.856Z,40.22
2023-05-10T00:55:43.555Z,39.98
2023-05-10T00:56:18.962Z,40.27
2023-05-10T00:56:51.251Z,40.19
2023-05-10T00:57:23.849Z,39.74
2023-05-10T00:57:58.976Z,40.08
2023-05-10T00:58:32.143Z,40.10
2023-05-10T00:59:04.603Z,40.18
2023-05-10T00:59:39.758Z,40.18
2023-05-10T01:00:13.666Z,40.00
2023-05-10T01:00:47.615Z,40.17
2023-05-10T01:01:23.436Z,39.85
2023-05-10T01:01:57.180Z,39.98
2023-05-10T01:02:29.464Z,40.13
2023-05-10T01:03:06.663Z,40.37
2023-05-10T01:03:40.253Z,39.89
2023-05-10T01:04:13.902Z,40.04
2023-05-10T01:04:48.940Z,39.85
2023-05-10T01:05:21.390Z,40.23
2023-05-10T01:05:53.731Z,39.93
2023-05-10T01:06:28.943Z,40.24
2023-05-10T01:07:01.133Z,40.07
2023-05-10T01:07:35.872Z,40.20
2023-05-10T01:08:12.480Z,40.08
2023-05-10T01:08:44.736Z,39.93
2023-05-10T01:09:18.302Z,39.86
2023-05-10T01:09:53.233Z,40.20
2023-05-10T01:10:25.538Z,39.99
2023-05-10T01:10:58.291Z,39.89
2023-05-10T01:11:33.241Z,40.22
2023-05-10T01:12:08.111Z,40.13
2023-05-10T01:12:43.488Z,40.21
2023-05-10T01:13:27.368Z,40.30
2023-05-10T01:14:00.144Z,40.21
2023-05-10T01:14:32.366Z,40.00
2023-05-10T01:15:09.264Z,40.26
2023-05-10T01:15:42.031Z,40.21
2023-05-10T01:16:17.700Z,40.10
2023-05-10T01:16:51.083Z,40.54
2023-05-10T01:17:24.203Z,40.04
2023-05-10T01:18:00.408Z,40.05
2023-05-10T01:18:34.913Z,39.99
2023-05-10T01:19:13.215Z,40.26
2023-05-10T01:19:48.183Z,40.51
2023-05-10T01:20:20.448Z,40.28
2023-05-10T01:21:05.842Z,40.45
2023-05-10T01:21:47.315Z,40.17
2023-05-10T01:22:46.499Z,40.30
2023-05-10T01:23:39.901Z,40.38
2023-05-10T01:24:33.536Z,40.58
2023-05-10T01:25:56.180Z,40.50
2023-05-10T01:26:59.578Z,40.57
2023-05-10T01:28:05.137Z,40.42
2023-05-10T01:29:13.006Z,40.66
2023-05-10T01:30:17.592Z,40.81
2023-05-10T01:31:08.445Z,40.73
2023-05-10T01:32:15.605Z,40.67
2023-05-10T01:32:54.104Z,41.06
2023-05-10T01:33:32.873Z,40.74
2023-05-10T01:34:10.624Z,40.83
2023-05-10T01:34:49.376Z,40.96
2023-05-10T01:35:38.434Z,40.68
2023-05-10T01:36:17.844Z,41.11
2023-05-10T01:36:54.233Z,41.21
2023-05-10T01:37:37.341Z,40.97
2023-05-10T01:38:16.398Z,41.21
2023-05-10T01:38:53.077Z,40.93
2023-05-10T01:39:32.869Z,40.76
2023-05-10T01:40:14.811Z,41.29
2023-05-10T01:41:04.686Z,41.10
2023-05-10T01:41:43.368Z,40.96
2023-05-10T01:42:21.344Z,40.91
2023-05-10T01:43:03.812Z,41.01
2023-05-10T01:43:44.207Z,40.90
2023-05-10T01:44:19.451Z,41.12
2023-05-10T01:45:06.238Z,41.32
2023-05-10T01:45:43.072Z,41.11
2023-05-10T01:46:19.071Z,41.13
2023-05-10T01:47:05.381Z,41.42
2023-05-10T01:47:43.125Z,41.12
2023-05-10T01:48:18.968Z,41.27
2023-05-10T01:48:55.536Z,41.32
2023-05-10T01:49:32.386Z,41.43
2023-05-10T01:50:10.258Z,41.04
2023-05-10T01:50:46.661Z,41.30
2023-05-10T01:51:30.462Z,41.53
2023-05-10T01:52:21.368Z,41.04
2023-05-10T01:52:56.718Z,41.48
2023-05-10T01:53:30.367Z,41.07
2023-05-10T01:54:08.573Z,41.18
2023-05-10T01:54:46.374Z,41.58
2023-05-10T01:55:22.718Z,41.68
2023-05-10T01:56:00.289Z,41.51
2023-05-10T01:56:34.541Z,41.19
2023-05-10T01:57:09.969Z,41.20
2023-05-10T01:57:46.009Z,41.57
2023-05-10T01:58:25.109Z,41.51
2023-05-10T01:58:58.495Z,41.73
2023-05-10T01:59:37.367Z,41.26
2023-05-10T02:00:14.646Z,41.43
2023-05-10T02:00:50.712Z,41.38
2023-05-10T02:01:24.067Z,41.55
2023-05-10T02:02:04.624Z,41.87
2023-05-10T02:02:41.002Z,41.75
2023-05-10T02:03:15.027Z,41.96
2023-05-10T02:03:51.582Z,41.60
2023-05-10T02:04:24.943Z,41.71
2023-05-10T02:04:59.616Z,41.70
2023-05-10T02:05:36.779Z,41.50
2023-05-10T02:06:11.905Z,41.87
2023-05-10T02:06:46.415Z,41.99
2023-05-10T02:07:22.133Z,41.90
2023-05-10T02:07:55.331Z,41.72
2023-05-10T02:08:28.513Z,41.57
2023-05-10T02:09:05.215Z,41.77
2023-05-10T02:09:38.428Z,41.80
2023-05-10T02:10:12.545Z,41.72
2023-05-10T02:10:49.409Z,41.75
2023-05-10T02:11:22.665Z,41.83
2023-05-10T02:11:55.758Z,41.76
2023-05-10T02:12:30.165Z,42.06
2023-05-10T02:13:07.344Z,42.06
2023-05-10T02:13:41.314Z,41.90
2023-05-10T02:14:14.624Z,41.84
2023-05-10T02:14:50.721Z,41.92
2023-05-10T02:15:25.984Z,42.05
2023-05-10T02:15:58.738Z,42.24
2023-05-10T02:16:34.651Z,41.88
2023-05-10T02:17:10.878Z,42.06
2023-05-10T02:17:44.541Z,41.99
2023-05-10T02:18:20.737Z,41.79
2023-05-10T02:18:54.143Z,41.71
2023-05-10T02:19:27.756Z,42.08
2023-05-10T02:20:05.689Z,42.35
2023-05-10T02:20:39.805Z,41.92
2023-05-10T02:21:13.711Z,42.21
2023-05-10T02:21:49.642Z,42.09
2023-05-10T02:22:23.600Z,42.32
2023-05-10T02:22:57.403Z,42.19
2023-05-10T02:23:33.290Z,42.26
2023-05-10T02:24:06.750Z,42.16
2023-05-10T02:24:41.095Z,42.18
2023-05-10T02:25:17.922Z,42.44
2023-05-10T02:25:52.482Z,42.50
2023-05-10T02:26:28.185Z,42.52
2023-05-10T02:27:04.396Z,42.21
2023-05-10T02:27:38.049Z,42.57
2023-05-10T02:28:12.737Z,42.20
2023-05-10T02:28:48.403Z,42.64
2023-05-10T02:29:21.633Z,42.22
2023-05-10T02:29:54.426Z,42.45
2023-05-10T02:30:29.515Z,42.57
2023-05-10T02:31:04.919Z,42.34
2023-05-10T02:31:39.997Z,42.38
2023-05-10T02:32:16.338Z,42.75
2023-05-10T02:32:52.951Z,42.65
2023-05-10T02:33:26.927Z,42.61
2023-05-10T02:34:00.168Z,42.85
2023-05-10T02:34:35.697Z,42.72
2023-05-10T02:35:09.675Z,43.01
2023-05-10T02:35:42.842Z,42.59
2023-05-10T02:36:19.070Z,42.94
2023-05-10T02:36:52.500Z,42.82
2023-05-10T02:37:26.769Z,42.44
2023-05-10T02:38:03.046Z,42.84
2023-05-10T02:38:37.724Z,42.68
2023-05-10T02:39:13.861Z,42.81
2023-05-10T02:39:49.872Z,42.65
2023-05-10T02:40:26.791Z,43.02
2023-05-10T02:41:01.144Z,42.72
2023-05-10T02:41:36.953Z,42.77
2023-05-10T02:42:09.971Z,42.83
2023-05-10T02:42:45.080Z,42.68
2023-05-10T02:43:22.260Z,42.68
2023-05-10T02:43:58.440Z,42.99
2023-05-10T02:44:32.314Z,43.05
2023-05-10T02:45:12.038Z,42.78
2023-05-10T02:45:48.315Z,42.70
2023-05-10T02:46:20.869Z,42.89
2023-05-10T02:46:57.151Z,43.19
2023-05-10T02:47:32.546Z,42.94
2023-05-10T02:48:05.397Z,43.18
2023-05-10T02:48:40.297Z,43.30
2023-05-10T02:49:12.749Z,42.95
2023-05-10T02:49:45.000Z,43.18
2023-05-10T02:50:19.874Z,42.95
2023-05-10T02:50:56.204Z,43.20
2023-05-10T02:51:36.238Z,42.86
2023-05-10T02:52:10.272Z,42.98
2023-05-10T02:52:47.577Z,43.09
2023-05-10T02:53:34.130Z,43.13
2023-05-10T02:54:13.281Z,42.75
2023-05-10T02:54:48.624Z,42.84
2023-05-10T02:55:26.280Z,43.18
2023-05-10T02:56:02.001Z,42.95
2023-05-10T02:56:37.647Z,42.69
2023-05-10T02:57:12.453Z,42.62
2023-05-10T02:57:54.998Z,42.68
2023-05-10T02:58:27.777Z,42.85
2023-05-10T02:59:00.065Z,42.64
2023-05-10T02:59:35.469Z,43.09
2023-05-10T03:00:09.657Z,42.81
2023-05-10T03:00:42.008Z,42.73
2023-05-10T03:01:16.796Z,43.23
2023-05-10T03:01:49.256Z,42.98
2023-05-10T03:02:22.298Z,43.01
2023-05-10T03:02:57.491Z,42.76
2023-05-10T03:03:33.255Z,42.90
2023-05-10T03:04:05.745Z,43.15
2023-05-10T03:04:38.025Z,43.08
2023-05-10T03:05:12.859Z,42.56
2023-05-10T03:05:45.165Z,42.66
2023-05-10T03:06:17.554Z,42.82
2023-05-10T03:06:49.949Z,42.95
2023-05-10T03:07:24.776Z,42.74
2023-05-10T03:07:57.569Z,42.83
2023-05-10T03:08:30.631Z,42.46
2023-05-10T03:09:06.908Z,42.84
2023-05-10T03:09:39.177Z,42.76
2023-05-10T03:10:12.191Z,42.48
2023-05-10T03:10:59.511Z,42.83
2023-05-10T03:11:43.451Z,42.45
2023-05-10T03:12:25.380Z,42.56
2023-05-10T03:13:11.637Z,42.99
2023-05-10T03:13:57.700Z,42.75
2023-05-10T03:14:43.675Z,42.90
2023-05-10T03:15:26.230Z,42.83
2023-05-10T03:16:03.242Z,43.34
2023-05-10T03:16:44.797Z,42.82
2023-05-10T03:17:26.512Z,42.77
2023-05-10T03:18:06.780Z,43.18
2023-05-10T03:18:48.058Z,43.38
2023-05-10T03:19:27.575Z,43.43
2023-05-10T03:20:05.527Z,42.88
2023-05-10T03:20:45.368Z,43.38
2023-05-10T03:21:20.092Z,43.28
2023-05-10T03:21:58.331Z,42.98
2023-05-10T03:22:36.906Z,43.28
2023-05-10T03:23:14.960Z,43.20
2023-05-10T03:23:53.738Z,42.92
2023-05-10T03:24:32.070Z,43.33
2023-05-10T03:25:07.969Z,43.35
2023-05-10T03:25:42.474Z,43.21
2023-05-10T03:26:24.273Z,43.36
2023-05-10T03:27:00.468Z,43.34
2023-05-10T03:27:33.604Z,43.36
2023-05-10T03:28:09.981Z,43.31
2023-05-10T03:28:43.100Z,43.51
2023-05-10T03:29:16.132Z,43.39
2023-05-10T03:29:52.377Z,43.62
2023-05-10T03:30:25.613Z,43.21
2023-05-10T03:30:58.941Z,43.15
2023-05-10T03:31:34.022Z,43.36
2023-05-10T03:32:06.487Z,43.40
2023-05-10T03:32:38.968Z,43.70
2023-05-10T03:33:16.697Z,43.53
2023-05-10T03:33:52.992Z,43.72
2023-05-10T03:34:31.978Z,43.42
2023-05-10T03:35:11.349Z,43.49
2023-05-10T03:35:45.319Z,43.86
2023-05-10T03:36:20.255Z,43.69
2023-05-10T03:36:52.623Z,43.54
2023-05-10T03:37:25.186Z,43.51
2023-05-10T03:37:59.927Z,43.76
2023-05-10T03:38:32.180Z,43.49
2023-05-10T03:39:04.952Z,43.64
2023-05-10T03:39:39.788Z,43.56
2023-05-10T03:40:14.404Z,43.61
2023-05-10T03:40:51.159Z,43.77
2023-05-10T03:41:23.545Z,43.42
2023-05-10T03:41:55.729Z,43.61
2023-05-10T03:42:30.676Z,43.37
2023-05-10T03:43:02.830Z,43.31
2023-05-10T03:43:35.216Z,43.43
2023-05-10T03:44:10.285Z,43.57
2023-05-10T03:44:42.607Z,43.38
2023-05-10T03:45:14.941Z,43.50
2023-05-10T03:45:49.735Z,43.63
2023-05-10T03:46:22.038Z,43.42
2023-05-10T03:46:54.438Z,43.80
2023-05-10T03:47:26.636Z,43.53
2023-05-10T03:48:01.747Z,43.29
2023-05-10T03:48:36.649Z,43.48
2023-05-10T03:49:08.783Z,43.10
2023-05-10T03:49:45.239Z,43.38
2023-05-10T03:50:18.589Z,43.64
2023-05-10T03:50:51.005Z,43.23
2023-05-10T03:51:29.180Z,43.19
2023-05-10T03:52:01.357Z,43.38
2023-05-10T03:52:33.606Z,43.43
2023-05-10T03:53:08.367Z,43.45
2023-05-10T03:53:40.542Z,43.55
2023-05-10T03:54:13.013Z,43.71
2023-05-10T03:54:47.739Z,43.36
2023-05-10T03:55:20.134Z,43.25
2023-05-10T03:55:52.323Z,43.44
2023-05-10T03:56:27.085Z,43.82
2023-05-10T03:56:59.985Z,43.43
2023-05-10T03:57:32.652Z,43.58
2023-05-10T03:58:08.158Z,43.14
2023-05-10T03:58:40.389Z,43.32
2023-05-10T03:59:12.686Z,43.25
2023-05-10T03:59:47.481Z,43.42
2023-05-10T04:00:20.198Z,43.36
2023-05-10T04:00:56.532Z,43.72
2023-05-10T04:01:31.289Z,43.60
2023-05-10T04:02:04.034Z,43.68
2023-05-10T04:02:36.456Z,43.67
2023-05-10T04:03:11.338Z,43.80
2023-05-10T04:03:47.099Z,43.65
2023-05-10T04:04:22.977Z,43.53
2023-05-10T04:04:55.893Z,43.70
2023-05-10T04:05:28.054Z,43.34
2023-05-10T04:06:01.272Z,43.62
2023-05-10T04:06:36.414Z,43.77
2023-05-10T04:07:08.719Z,43.36
2023-05-10T04:07:40.906Z,43.67
2023-05-10T04:08:13.134Z,43.59
2023-05-10T04:08:47.858Z,43.76
2023-05-10T04:09:20.116Z,43.49
2023-05-10T04:09:52.411Z,43.76
2023-05-10T04:10:27.216Z,43.90
2023-05-10T04:11:07.191Z,43.42
2023-05-10T04:11:42.057Z,43.70
2023-05-10T04:12:14.328Z,43.87
2023-05-10T04:12:46.607Z,43.70
2023-05-10T04:13:21.908Z,43.62
2023-05-10T04:13:54.591Z,43.74
2023-05-10T04:14:26.831Z,43.67
2023-05-10T04:15:02.489Z,43.86
2023-05-10T04:15:34.918Z,43.93
2023-05-10T04:16:07.508Z,43.51
2023-05-10T04:16:42.316Z,43.67
2023-05-10T04:17:14.556Z,43.74
2023-05-10T04:17:47.051Z,43.79
2023-05-10T04:18:21.813Z,43.86
2023-05-10T04:18:56.576Z,43.45
2023-05-10T04:19:30.827Z,43.67
2023-05-10T04:20:05.819Z,43.71
2023-05-10T04:20:38.121Z,43.58
2023-05-10T04:21:15.993Z,43.69
2023-05-10T04:21:48.135Z,43.60
2023-05-10T04:22:20.326Z,43.80
2023-05-10T04:22:55.063Z,43.70
2023-05-10T04:23:28.197Z,43.95
2023-05-10T04:24:00.334Z,43.70
2023-05-10T04:24:35.036Z,43.48
2023-05-10T04:25:08.466Z,43.95
2023-05-10T04:25:40.816Z,43.66
2023-05-10T04:26:15.646Z,43.88
2023-05-10T04:26:47.830Z,43.85
2023-05-10T04:27:19.961Z,44.00
2023-05-10T04:27:55.575Z,43.91
2023-05-10T04:28:28.613Z,43.68
2023-05-10T04:29:01.007Z,43.85
2023-05-10T04:29:35.750Z,43.72
2023-05-10T04:30:09.375Z,43.95
2023-05-10T04:30:41.738Z,43.73
2023-05-10T04:31:16.629Z,43.68
2023-05-10T04:31:50.037Z,44.13
2023-05-10T04:32:22.289Z,44.15
2023-05-10T04:32:57.097Z,44.17
2023-05-10T04:33:29.211Z,44.21
2023-05-10T04:34:06.844Z,44.28
2023-05-10T04:34:39.098Z,44.12
2023-05-10T04:35:16.008Z,44.02
2023-05-10T04:35:48.190Z,44.08
2023-05-10T04:36:20.346Z,44.15
2023-05-10T04:36:55.119Z,44.21
2023-05-10T04:37:27.363Z,44.54
2023-05-10T04:37:59.485Z,44.09
2023-05-10T04:38:34.320Z,44.31
2023-05-10T04:39:06.648Z,44.58
2023-05-10T04:39:40.282Z,44.25
2023-05-10T04:40:17.195Z,44.49
2023-05-10T04:40:49.544Z,44.57
2023-05-10T04:41:21.838Z,44.73
2023-05-10T04:41:56.782Z,44.93
2023-05-10T04:42:29.070Z,44.83
2023-05-10T04:43:01.505Z,44.70
2023-05-10T04:43:36.501Z,44.56
2023-05-10T04:44:08.661Z,44.73
2023-05-10T04:44:40.831Z,44.63
2023-05-10T04:45:15.792Z,44.40
2023-05-10T04:45:48.163Z,44.51
2023-05-10T04:46:20.462Z,44.58
2023-05-10T04:46:55.308Z,44.68
2023-05-10T04:47:27.589Z,44.70
2023-05-10T04:47:59.837Z,44.62
2023-05-10T04:48:34.918Z,44.60
2023-05-10T04:49:09.647Z,44.51
2023-05-10T04:49:41.786Z,44.75
2023-05-10T04:50:16.766Z,44.36
2023-05-10T04:50:49.093Z,44.67
2023-05-10T04:51:21.730Z,44.64
2023-05-10T04:51:56.557Z,44.51
2023-05-10T04:52:28.813Z,44.39
2023-05-10T04:53:01.085Z,44.52
2023-05-10T04:53:36.027Z,44.80
2023-05-10T04:54:08.308Z,44.84
2023-05-10T04:54:40.513Z,44.52
2023-05-10T04:55:15.317Z,44.48
2023-05-10T04:55:47.907Z,44.37
2023-05-10T04:56:20.106Z,44.59
2023-05-10T04:56:54.931Z,44.18
2023-05-10T04:57:27.289Z,44.66
2023-05-10T04:58:00.239Z,44.44
2023-05-10T04:58:34.979Z,44.16
2023-05-10T04:59:07.195Z,43.84
2023-05-10T04:59:39.440Z,44.05
2023-05-10T05:00:15.729Z,43.65
2023-05-10T05:00:48.080Z,43.97
2023-05-10T05:01:20.266Z,43.65
2023-05-10T05:01:55.056Z,43.66
2023-05-10T05:02:27.509Z,43.92
2023-05-10T05:02:59.861Z,43.82
2023-05-10T05:03:34.854Z,43.54
2023-05-10T05:04:09.655Z,43.52
2023-05-10T05:04:44.429Z,43.85
2023-05-10T05:05:16.791Z,43.88
2023-05-10T05:05:49.206Z,43.35
2023-05-10T05:06:25.974Z,43.62
2023-05-10T05:06:58.301Z,43.44
2023-05-10T05:07:31.816Z,43.46
2023-05-10T05:08:07.519Z,43.20
2023-05-10T05:08:39.693Z,43.22
2023-05-10T05:09:11.839Z,43.23
2023-05-10T05:09:46.551Z,43.24
2023-05-10T05:10:19.140Z,43.15
2023-05-10T05:10:52.401Z,43.44
2023-05-10T05:11:27.217Z,43.04
2023-05-10T05:11:59.472Z,42.94
2023-05-10T05:12:31.667Z,42.55
2023-05-10T05:13:06.493Z,42.78
2023-05-10T05:13:38.879Z,42.66
2023-05-10T05:14:13.600Z,42.52
2023-05-10T05:14:45.729Z,42.27
2023-05-10T05:15:18.234Z,42.52
2023-05-10T05:15:52.974Z,42.43
2023-05-10T05:16:25.258Z,42.33
2023-05-10T05:17:00.044Z,42.34
2023-05-10T05:17:32.720Z,42.54
2023-05-10T05:18:05.391Z,42.74
2023-05-10T05:18:40.241Z,42.14
2023-05-10T05:19:15.500Z,42.64
2023-05-10T05:19:47.684Z,42.23
2023-05-10T05:20:22.717Z,42.05
2023-05-10T05:20:54.895Z,42.00
2023-05-10T05:21:28.276Z,42.01
2023-05-10T05:22:03.122Z,41.91
2023-05-10T05:22:35.335Z,41.78
2023-05-10T05:23:07.500Z,42.00
2023-05-10T05:23:42.244Z,41.68
2023-05-10T05:24:14.423Z,41.69
2023-05-10T05:24:49.509Z,41.74
2023-05-10T05:25:21.791Z,41.53
2023-05-10T05:25:53.988Z,41.28
2023-05-10T05:26:28.945Z,41.45
2023-05-10T05:27:02.014Z,41.70
2023-05-10T05:27:34.312Z,41.44
2023-05-10T05:28:09.157Z,41.70
2023-05-10T05:28:41.329Z,41.74
2023-05-10T05:29:13.515Z,41.80
2023-05-10T05:29:48.234Z,41.98
2023-05-10T05:30:20.618Z,41.84
2023-05-10T05:30:52.897Z,41.83
2023-05-10T05:31:27.679Z,41.61
2023-05-10T05:32:00.039Z,41.80
2023-05-10T05:32:32.407Z,42.46
2023-05-10T05:33:07.568Z,42.21
2023-05-10T05:33:39.815Z,42.03
2023-05-10T05:34:14.611Z,42.21
2023-05-10T05:34:49.593Z,42.03
2023-05-10T05:35:21.992Z,42.45
2023-05-10T05:35:54.273Z,42.32
2023-05-10T05:36:29.075Z,42.83
2023-05-10T05:37:01.469Z,42.46
2023-05-10T05:37:33.766Z,42.75
2023-05-10T05:38:08.608Z,42.71
2023-05-10T05:38:41.475Z,42.45
2023-05-10T05:39:13.701Z,42.50
2023-05-10T05:39:49.348Z,42.39
2023-05-10T05:40:21.678Z,42.38
2023-05-10T05:40:53.961Z,41.99
2023-05-10T05:41:28.752Z,41.85
2023-05-10T05:42:00.975Z,41.68
2023-05-10T05:42:33.457Z,41.59
2023-05-10T05:43:08.269Z,41.54
2023-05-10T05:43:40.557Z,41.72
2023-05-10T05:44:12.839Z,41.69
2023-05-10T05:44:47.705Z,41.44
2023-05-10T05:45:20.083Z,41.84
2023-05-10T05:45:56.196Z,41.61
2023-05-10T05:46:28.487Z,41.21
2023-05-10T05:47:00.762Z,41.61
2023-05-10T05:47:35.507Z,41.27
2023-05-10T05:48:07.732Z,41.56
2023-05-10T05:49:06.993Z,41.44
2023-05-10T05:49:39.315Z,41.71
2023-05-10T05:50:14.372Z,41.31
2023-05-10T05:50:46.839Z,41.82
2023-05-10T05:51:19.093Z,41.57
2023-05-10T05:52:37.253Z,41.66
2023-05-10T05:53:10.387Z,41.64
2023-05-10T05:53:42.496Z,41.36
2023-05-10T05:54:17.183Z,41.46
2023-05-10T05:54:49.335Z,41.38
2023-05-10T05:55:21.491Z,41.23
2023-05-10T05:55:58.337Z,40.91
2023-05-10T05:56:30.534Z,41.31
2023-05-10T05:57:02.733Z,41.19
2023-05-10T05:57:37.469Z,40.76
2023-05-10T05:58:09.688Z,40.72
2023-05-10T05:58:44.777Z,41.03
2023-05-10T05:59:16.878Z,40.87
2023-05-10T05:59:49.523Z,40.84
2023-05-10T06:00:25.270Z,41.06
2023-05-10T06:00:57.962Z,41.00
2023-05-10T06:01:35.516Z,40.85
2023-05-10T06:02:07.810Z,40.95
2023-05-10T06:02:40.214Z,41.08
2023-05-10T06:03:15.143Z,41.52
2023-05-10T06:03:47.618Z,41.28
2023-05-10T06:04:20.264Z,41.05
2023-05-10T06:04:54.967Z,41.15
2023-05-10T06:05:27.153Z,41.23
2023-05-10T06:06:01.856Z,41.04
2023-05-10T06:06:34.039Z,41.25
2023-05-10T06:07:06.259Z,41.13
2023-05-10T06:07:43.857Z,41.26
2023-05-10T06:08:16.133Z,41.09
2023-05-10T06:08:48.291Z,41.05
2023-05-10T06:09:24.909Z,40.95
2023-05-10T06:09:57.271Z,40.90
2023-05-10T06:10:29.407Z,40.81
2023-05-10T06:11:05.345Z,40.66
2023-05-10T06:11:37.992Z,40.49
2023-05-10T06:12:10.335Z,40.51
2023-05-10T06:12:47.719Z,40.42
2023-05-10T06:13:19.978Z,40.61
2023-05-10T06:13:52.188Z,40.74
2023-05-10T06:14:27.094Z,40.53
2023-05-10T06:14:59.375Z,40.44
2023-05-10T06:15:31.601Z,40.31
2023-05-10T06:16:06.725Z,40.54
2023-05-10T06:16:38.971Z,40.50
2023-05-10T06:17:11.158Z,40.34
2023-05-10T06:17:45.949Z,40.17
2023-05-10T06:18:18.556Z,40.54
2023-05-10T06:18:55.563Z,40.17
2023-05-10T06:19:28.490Z,40.04
2023-05-10T06:20:03.241Z,39.79
2023-05-10T06:20:38.157Z,40.21
2023-05-10T06:21:12.964Z,40.30
2023-05-10T06:21:45.118Z,39.83
2023-05-10T06:22:17.287Z,40.20
2023-05-10T06:22:54.595Z,39.85
2023-05-10T06:23:26.741Z,39.93
2023-05-10T06:24:01.528Z,39.92
2023-05-10T06:24:33.673Z,40.18
2023-05-10T06:25:09.719Z,40.23
2023-05-10T06:25:41.841Z,39.98
2023-05-10T06:26:16.545Z,40.23
2023-05-10T06:26:50.902Z,40.19
2023-05-10T06:27:25.850Z,40.46
2023-05-10T06:28:01.120Z,40.13
2023-05-10T06:28:34.653Z,40.38
2023-05-10T06:29:07.140Z,40.17
2023-05-10T06:29:43.004Z,40.11
2023-05-10T06:30:19.533Z,40.00
2023-05-10T06:30:54.316Z,39.85
2023-05-10T06:31:26.531Z,39.61
2023-05-10T06:32:01.261Z,39.88
2023-05-10T06:32:33.892Z,39.42
2023-05-10T06:33:08.709Z,39.15
2023-05-10T06:33:41.525Z,38.94
2023-05-10T06:34:14.673Z,39.43
2023-05-10T06:34:49.372Z,38.82
2023-05-10T06:35:21.789Z,39.17
2023-05-10T06:35:56.500Z,38.86
2023-05-10T06:36:28.750Z,38.91
2023-05-10T06:37:04.706Z,39.20
2023-05-10T06:37:36.874Z,38.84
2023-05-10T06:38:14.358Z,38.78
2023-05-10T06:38:46.619Z,38.61
2023-05-10T06:39:18.825Z,38.88
2023-05-10T06:39:53.525Z,38.79
2023-05-10T06:40:25.709Z,38.64
2023-05-10T06:40:58.288Z,38.52
2023-05-10T06:41:33.036Z,38.36
2023-05-10T06:42:06.378Z,38.02
2023-05-10T06:42:41.425Z,37.91
2023-05-10T06:43:13.615Z,38.31
2023-05-10T06:43:48.475Z,37.75
2023-05-10T06:44:20.612Z,37.97
2023-05-10T06:44:52.796Z,37.63
2023-05-10T06:45:27.512Z,37.72
2023-05-10T06:45:59.840Z,37.76
2023-05-10T06:46:32.170Z,37.79
2023-05-10T06:47:07.047Z,37.57
2023-05-10T06:47:39.636Z,37.41
2023-05-10T06:48:14.520Z,37.39
2023-05-10T06:48:46.716Z,37.40
2023-05-10T06:49:21.842Z,37.60
2023-05-10T06:49:54.129Z,37.38
2023-05-10T06:50:28.921Z,37.47
2023-05-10T06:51:01.122Z,37.36
2023-05-10T06:51:34.017Z,37.13
2023-05-10T06:52:08.925Z,37.41
2023-05-10T06:52:41.428Z,37.95
2023-05-10T06:53:18.929Z,37.86
2023-05-10T06:53:51.112Z,37.50
2023-05-10T06:54:24.269Z,37.97
2023-05-10T06:54:59.224Z,37.99
2023-05-10T06:55:31.427Z,37.66
2023-05-10T06:56:06.541Z,37.77
2023-05-10T06:56:38.690Z,37.03
2023-05-10T06:57:27.541Z,36.92
2023-05-10T06:58:03.773Z,37.06
2023-05-10T06:58:39.233Z,37.16
2023-05-10T06:59:11.421Z,37.53
2023-05-10T06:59:43.978Z,37.42
2023-05-10T07:00:19.911Z,36.81
2023-05-10T07:01:02.794Z,36.73
2023-05-10T07:01:37.721Z,36.41
2023-05-10T07:02:09.940Z,36.69
2023-05-10T07:02:44.744Z,36.61
2023-05-10T07:03:17.198Z,36.60
2023-05-10T07:03:52.205Z,36.75
2023-05-10T07:04:24.515Z,36.66
2023-05-10T07:05:01.632Z,36.58
2023-05-10T07:05:35.531Z,36.63
2023-05-10T07:06:21.732Z,36.37
2023-05-10T07:07:03.005Z,36.18
2023-05-10T07:07:37.734Z,36.31
2023-05-10T07:08:10.238Z,36.05
2023-05-10T07:08:44.945Z,36.28
2023-05-10T07:09:20.688Z,36.03
2023-05-10T07:09:55.878Z,36.50
2023-05-10T07:10:31.041Z,36.07
2023-05-10T07:11:04.658Z,36.23
2023-05-10T07:11:37.383Z,36.79
2023-05-10T07:12:14.171Z,36.52
2023-05-10T07:12:47.463Z,36.40
2023-05-10T07:13:22.353Z,36.37
2023-05-10T07:13:54.601Z,36.64
2023-05-10T07:14:26.875Z,36.75
2023-05-10T07:15:01.625Z,36.54
2023-05-10T07:15:37.042Z,36.07
2023-05-10T07:16:11.774Z,35.89
2023-05-10T07:16:44.110Z,36.16
2023-05-10T07:17:16.448Z,36.21
2023-05-10T07:17:53.215Z,36.05
2023-05-10T07:18:25.818Z,36.19
2023-05-10T07:18:58.024Z,36.09
2023-05-10T07:19:33.911Z,36.22
2023-05-10T07:20:07.919Z,35.94
2023-05-10T07:20:40.095Z,35.45
2023-05-10T07:21:15.206Z,35.12
2023-05-10T07:21:47.373Z,35.08
2023-05-10T07:22:22.166Z,35.02
2023-05-10T07:22:54.342Z,35.04
2023-05-10T07:23:26.614Z,35.08
2023-05-10T07:24:04.103Z,35.39
2023-05-10T07:24:36.324Z,35.61
2023-05-10T07:25:09.257Z,35.48
2023-05-10T07:25:44.193Z,35.58
2023-05-10T07:26:16.753Z,34.91
2023-05-10T07:26:51.715Z,34.86
2023-05-10T07:27:24.015Z,34.70
2023-05-10T07:27:58.777Z,35.06
2023-05-10T07:28:31.137Z,35.41
2023-05-10T07:29:03.626Z,35.83
2023-05-10T07:29:38.788Z,35.82
2023-05-10T07:30:12.484Z,35.06